Amanda Park, Washington
Current Conditions -  °F | °C
As of 6:53 AM on Thursday 23 Oct 2014 (Local Time) from KHQM Reporting Station
Light Rain Light Rain  
Wind Chill: 53°   Ceiling: 6000
Heat Index: 53°   Visibility: 8mi
Dew Point: 50°   Wind: 13mph
Humidity: 89%   Direction: 160°SSE
Pressure: 29.7"   Gusts: NA
Location:  47.46°N, 123.89°W
Report Text: KHQM 231353Z AUTO 16011KT 8SM -RA BKN060 BKN070 OVC090 12/10 A2970 RMK AO2 RAE02B46 SLP061 P0000 T01170100
Loading
Personal Weather Stations






























Interactive Weather Map
Tropical Storm Tracking
New forecast layout! Learn more

10-Day Weather Forecast

Advertisements
Track Severe Weather on mobile